Lynn Lake, Canada
Current Conditions -  °F | °C
As of 8:00 AM on Friday 24 Oct 2014 (Local Time) from CYYL Reporting Station
Haze Haze  
Wind Chill: 30°   Ceiling: 500
Heat Index: 36°   Visibility: 0.75mi
Dew Point: 36°   Wind: 7mph
Humidity: 100%   Direction: 140°SE
Pressure: 29.42"   Gusts: NA
Location:  56.85°N, 101.05°W
Report Text: CYYL 241300Z AUTO 14006KT 3/4SM BR VV005 02/02 A2942 RMK SLP982
Loading
Personal Weather Stations






























Interactive Weather Map
Tropical Storm Tracking
New forecast layout! Learn more

10-Day Weather Forecast

Advertisements
Track Severe Weather on mobile